sensor_id;sensor_type;location;lat;lon;timestamp;P1;durP1;ratioP1;P2;durP2;ratioP2
23517;SDS011;11935;50.878;4.392;2022-12-07T00:01:26;18.05;;;11.15;;
23517;SDS011;11935;50.878;4.392;2022-12-07T00:03:51;18.13;;;11.63;;
23517;SDS011;11935;50.878;4.392;2022-12-07T00:06:18;17.65;;;11.43;;
23517;SDS011;11935;50.878;4.392;2022-12-07T00:08:44;17.10;;;12.23;;
23517;SDS011;11935;50.878;4.392;2022-12-07T00:11:12;20.50;;;13.23;;
23517;SDS011;11935;50.878;4.392;2022-12-07T00:13:39;19.95;;;12.30;;
23517;SDS011;11935;50.878;4.392;2022-12-07T00:16:06;17.50;;;12.00;;
23517;SDS011;11935;50.878;4.392;2022-12-07T00:18:33;16.40;;;12.15;;
23517;SDS011;11935;50.878;4.392;2022-12-07T00:21:00;22.42;;;13.07;;
23517;SDS011;11935;50.878;4.392;2022-12-07T00:23:26;17.80;;;11.63;;
23517;SDS011;11935;50.878;4.392;2022-12-07T00:25:52;21.17;;;13.60;;
23517;SDS011;11935;50.878;4.392;2022-12-07T00:28:18;17.23;;;11.95;;
23517;SDS011;11935;50.878;4.392;2022-12-07T00:30:44;19.10;;;12.77;;
23517;SDS011;11935;50.878;4.392;2022-12-07T00:33:10;17.00;;;12.45;;
23517;SDS011;11935;50.878;4.392;2022-12-07T00:35:36;23.02;;;14.00;;
23517;SDS011;11935;50.878;4.392;2022-12-07T00:38:02;20.60;;;12.82;;
23517;SDS011;11935;50.878;4.392;2022-12-07T00:40:28;19.63;;;13.23;;
23517;SDS011;11935;50.878;4.392;2022-12-07T00:42:54;20.45;;;12.57;;
23517;SDS011;11935;50.878;4.392;2022-12-07T00:45:20;17.80;;;13.55;;
23517;SDS011;11935;50.878;4.392;2022-12-07T00:47:46;20.20;;;12.43;;
23517;SDS011;11935;50.878;4.392;2022-12-07T00:50:12;18.35;;;12.82;;
23517;SDS011;11935;50.878;4.392;2022-12-07T00:52:38;23.25;;;13.43;;
23517;SDS011;11935;50.878;4.392;2022-12-07T00:55:04;21.30;;;14.05;;
23517;SDS011;11935;50.878;4.392;2022-12-07T00:57:31;22.15;;;13.68;;
23517;SDS011;11935;50.878;4.392;2022-12-07T00:59:57;21.65;;;15.18;;
23517;SDS011;11935;50.878;4.392;2022-12-07T01:02:25;21.00;;;13.82;;
23517;SDS011;11935;50.878;4.392;2022-12-07T01:04:51;19.30;;;14.07;;
23517;SDS011;11935;50.878;4.392;2022-12-07T01:07:17;20.77;;;14.63;;
23517;SDS011;11935;50.878;4.392;2022-12-07T01:09:43;21.13;;;14.32;;
23517;SDS011;11935;50.878;4.392;2022-12-07T01:12:09;23.52;;;16.05;;
23517;SDS011;11935;50.878;4.392;2022-12-07T01:14:35;23.85;;;14.98;;
23517;SDS011;11935;50.878;4.392;2022-12-07T01:17:01;23.67;;;15.70;;
23517;SDS011;11935;50.878;4.392;2022-12-07T01:19:27;22.95;;;15.75;;
23517;SDS011;11935;50.878;4.392;2022-12-07T01:21:53;23.25;;;15.98;;
23517;SDS011;11935;50.878;4.392;2022-12-07T01:24:19;22.50;;;16.48;;
23517;SDS011;11935;50.878;4.392;2022-12-07T01:26:45;24.00;;;16.10;;
23517;SDS011;11935;50.878;4.392;2022-12-07T01:29:14;21.90;;;15.98;;
23517;SDS011;11935;50.878;4.392;2022-12-07T01:31:40;25.90;;;16.40;;
23517;SDS011;11935;50.878;4.392;2022-12-07T01:34:06;23.83;;;16.55;;
23517;SDS011;11935;50.878;4.392;2022-12-07T01:36:33;24.52;;;16.05;;
23517;SDS011;11935;50.878;4.392;2022-12-07T01:39:01;24.02;;;16.05;;
23517;SDS011;11935;50.878;4.392;2022-12-07T01:41:29;22.27;;;15.32;;
23517;SDS011;11935;50.878;4.392;2022-12-07T01:46:40;24.20;;;15.60;;
23517;SDS011;11935;50.878;4.392;2022-12-07T01:49:08;22.55;;;15.05;;
23517;SDS011;11935;50.878;4.392;2022-12-07T01:54:02;20.90;;;14.48;;
23517;SDS011;11935;50.878;4.392;2022-12-07T01:56:28;21.35;;;15.15;;
23517;SDS011;11935;50.878;4.392;2022-12-07T01:58:55;25.00;;;15.73;;
23517;SDS011;11935;50.878;4.392;2022-12-07T02:01:21;22.98;;;15.80;;
23517;SDS011;11935;50.878;4.392;2022-12-07T02:03:48;27.38;;;18.10;;
23517;SDS011;11935;50.878;4.392;2022-12-07T02:06:15;20.88;;;14.75;;
23517;SDS011;11935;50.878;4.392;2022-12-07T02:08:42;22.25;;;14.75;;
23517;SDS011;11935;50.878;4.392;2022-12-07T02:11:08;22.20;;;14.57;;
23517;SDS011;11935;50.878;4.392;2022-12-07T02:13:35;22.73;;;14.60;;
23517;SDS011;11935;50.878;4.392;2022-12-07T02:23:53;20.60;;;13.00;;
23517;SDS011;11935;50.878;4.392;2022-12-07T02:29:17;20.17;;;12.98;;
23517;SDS011;11935;50.878;4.392;2022-12-07T02:31:48;18.77;;;13.45;;
23517;SDS011;11935;50.878;4.392;2022-12-07T02:34:46;22.20;;;13.13;;
23517;SDS011;11935;50.878;4.392;2022-12-07T02:39:59;17.60;;;12.88;;
23517;SDS011;11935;50.878;4.392;2022-12-07T02:42:32;21.00;;;13.25;;
23517;SDS011;11935;50.878;4.392;2022-12-07T02:44:59;21.45;;;13.65;;
23517;SDS011;11935;50.878;4.392;2022-12-07T02:47:26;20.17;;;12.77;;
23517;SDS011;11935;50.878;4.392;2022-12-07T02:49:54;19.40;;;12.55;;
23517;SDS011;11935;50.878;4.392;2022-12-07T02:52:21;17.48;;;12.20;;
23517;SDS011;11935;50.878;4.392;2022-12-07T02:54:47;16.52;;;12.23;;
23517;SDS011;11935;50.878;4.392;2022-12-07T03:00:23;21.48;;;12.65;;
23517;SDS011;11935;50.878;4.392;2022-12-07T03:08:24;20.20;;;12.60;;
23517;SDS011;11935;50.878;4.392;2022-12-07T03:10:56;21.33;;;13.10;;
23517;SDS011;11935;50.878;4.392;2022-12-07T03:16:08;21.63;;;13.10;;
23517;SDS011;11935;50.878;4.392;2022-12-07T03:18:38;18.42;;;12.65;;
23517;SDS011;11935;50.878;4.392;2022-12-07T03:21:06;22.40;;;12.52;;
23517;SDS011;11935;50.878;4.392;2022-12-07T03:23:34;17.27;;;12.15;;
23517;SDS011;11935;50.878;4.392;2022-12-07T03:26:02;23.60;;;13.65;;
23517;SDS011;11935;50.878;4.392;2022-12-07T03:28:31;18.38;;;11.68;;
23517;SDS011;11935;50.878;4.392;2022-12-07T03:31:03;18.52;;;12.52;;
23517;SDS011;11935;50.878;4.392;2022-12-07T03:33:33;19.15;;;12.50;;
23517;SDS011;11935;50.878;4.392;2022-12-07T03:36:10;20.33;;;11.75;;
23517;SDS011;11935;50.878;4.392;2022-12-07T03:38:40;20.20;;;12.23;;
23517;SDS011;11935;50.878;4.392;2022-12-07T03:41:29;20.92;;;11.95;;
23517;SDS011;11935;50.878;4.392;2022-12-07T03:43:55;17.23;;;11.85;;
23517;SDS011;11935;50.878;4.392;2022-12-07T03:56:55;16.90;;;12.38;;
23517;SDS011;11935;50.878;4.392;2022-12-07T03:59:21;17.73;;;12.77;;
23517;SDS011;11935;50.878;4.392;2022-12-07T04:01:52;21.42;;;12.40;;
23517;SDS011;11935;50.878;4.392;2022-12-07T04:04:19;21.38;;;12.32;;
23517;SDS011;11935;50.878;4.392;2022-12-07T04:06:45;19.50;;;12.68;;
23517;SDS011;11935;50.878;4.392;2022-12-07T04:09:11;25.08;;;13.18;;
23517;SDS011;11935;50.878;4.392;2022-12-07T04:11:39;23.47;;;13.30;;
23517;SDS011;11935;50.878;4.392;2022-12-07T04:14:05;21.48;;;13.43;;
23517;SDS011;11935;50.878;4.392;2022-12-07T04:16:44;20.40;;;13.27;;
23517;SDS011;11935;50.878;4.392;2022-12-07T04:19:11;20.30;;;13.35;;
23517;SDS011;11935;50.878;4.392;2022-12-07T04:21:37;19.08;;;13.45;;
23517;SDS011;11935;50.878;4.392;2022-12-07T04:24:03;19.88;;;12.68;;
23517;SDS011;11935;50.878;4.392;2022-12-07T04:26:29;21.92;;;13.00;;
23517;SDS011;11935;50.878;4.392;2022-12-07T04:28:55;19.90;;;13.50;;
23517;SDS011;11935;50.878;4.392;2022-12-07T04:31:21;21.45;;;13.57;;
23517;SDS011;11935;50.878;4.392;2022-12-07T04:33:47;21.60;;;13.77;;
23517;SDS011;11935;50.878;4.392;2022-12-07T04:36:14;20.13;;;14.43;;
23517;SDS011;11935;50.878;4.392;2022-12-07T04:38:40;23.02;;;15.27;;
23517;SDS011;11935;50.878;4.392;2022-12-07T04:41:06;17.92;;;13.63;;
23517;SDS011;11935;50.878;4.392;2022-12-07T04:43:33;20.75;;;14.32;;
23517;SDS011;11935;50.878;4.392;2022-12-07T04:45:59;26.30;;;15.60;;
23517;SDS011;11935;50.878;4.392;2022-12-07T04:48:25;22.00;;;14.80;;
23517;SDS011;11935;50.878;4.392;2022-12-07T04:50:51;26.45;;;14.70;;
23517;SDS011;11935;50.878;4.392;2022-12-07T04:53:18;21.42;;;15.32;;
23517;SDS011;11935;50.878;4.392;2022-12-07T04:55:45;25.15;;;15.48;;
23517;SDS011;11935;50.878;4.392;2022-12-07T04:58:11;19.67;;;14.48;;
23517;SDS011;11935;50.878;4.392;2022-12-07T05:00:38;24.23;;;14.93;;
23517;SDS011;11935;50.878;4.392;2022-12-07T05:03:04;22.15;;;14.38;;
23517;SDS011;11935;50.878;4.392;2022-12-07T05:05:30;23.52;;;14.18;;
23517;SDS011;11935;50.878;4.392;2022-12-07T05:07:56;22.05;;;13.45;;
23517;SDS011;11935;50.878;4.392;2022-12-07T05:10:22;21.40;;;13.93;;
23517;SDS011;11935;50.878;4.392;2022-12-07T05:12:48;24.10;;;15.07;;
23517;SDS011;11935;50.878;4.392;2022-12-07T05:15:15;22.17;;;15.55;;
23517;SDS011;11935;50.878;4.392;2022-12-07T05:17:41;26.10;;;15.15;;
23517;SDS011;11935;50.878;4.392;2022-12-07T05:20:07;24.77;;;14.55;;
23517;SDS011;11935;50.878;4.392;2022-12-07T05:22:33;25.35;;;15.13;;
23517;SDS011;11935;50.878;4.392;2022-12-07T05:24:59;24.10;;;15.60;;
23517;SDS011;11935;50.878;4.392;2022-12-07T05:27:26;21.27;;;14.00;;
23517;SDS011;11935;50.878;4.392;2022-12-07T05:29:52;24.48;;;15.45;;
23517;SDS011;11935;50.878;4.392;2022-12-07T05:32:18;24.70;;;14.02;;
23517;SDS011;11935;50.878;4.392;2022-12-07T05:34:44;20.20;;;14.55;;
23517;SDS011;11935;50.878;4.392;2022-12-07T05:37:10;21.20;;;14.18;;
23517;SDS011;11935;50.878;4.392;2022-12-07T05:39:36;21.33;;;14.13;;
23517;SDS011;11935;50.878;4.392;2022-12-07T05:42:05;20.05;;;13.52;;
23517;SDS011;11935;50.878;4.392;2022-12-07T05:44:40;23.10;;;13.55;;
23517;SDS011;11935;50.878;4.392;2022-12-07T05:47:06;20.63;;;13.77;;
23517;SDS011;11935;50.878;4.392;2022-12-07T05:49:32;19.55;;;14.63;;
23517;SDS011;11935;50.878;4.392;2022-12-07T05:51:58;16.63;;;12.85;;
23517;SDS011;11935;50.878;4.392;2022-12-07T05:54:25;20.15;;;13.77;;
23517;SDS011;11935;50.878;4.392;2022-12-07T05:56:51;22.48;;;13.00;;
23517;SDS011;11935;50.878;4.392;2022-12-07T05:59:17;21.42;;;14.02;;
23517;SDS011;11935;50.878;4.392;2022-12-07T06:01:54;18.08;;;13.63;;
23517;SDS011;11935;50.878;4.392;2022-12-07T06:04:20;19.02;;;13.52;;
23517;SDS011;11935;50.878;4.392;2022-12-07T06:06:47;18.05;;;11.80;;
23517;SDS011;11935;50.878;4.392;2022-12-07T06:09:13;23.33;;;13.68;;
23517;SDS011;11935;50.878;4.392;2022-12-07T06:11:39;19.77;;;12.45;;
23517;SDS011;11935;50.878;4.392;2022-12-07T06:14:24;21.58;;;12.25;;
23517;SDS011;11935;50.878;4.392;2022-12-07T06:16:50;17.88;;;11.93;;
23517;SDS011;11935;50.878;4.392;2022-12-07T06:19:17;15.40;;;12.15;;
23517;SDS011;11935;50.878;4.392;2022-12-07T06:21:43;20.27;;;12.02;;
23517;SDS011;11935;50.878;4.392;2022-12-07T06:24:15;24.70;;;12.23;;
23517;SDS011;11935;50.878;4.392;2022-12-07T06:26:42;21.92;;;11.70;;
23517;SDS011;11935;50.878;4.392;2022-12-07T06:29:08;20.17;;;11.80;;
23517;SDS011;11935;50.878;4.392;2022-12-07T06:31:35;18.45;;;11.23;;
23517;SDS011;11935;50.878;4.392;2022-12-07T06:34:05;15.68;;;10.75;;
23517;SDS011;11935;50.878;4.392;2022-12-07T06:36:31;18.60;;;10.45;;
23517;SDS011;11935;50.878;4.392;2022-12-07T06:38:57;18.35;;;11.73;;
23517;SDS011;11935;50.878;4.392;2022-12-07T06:41:23;17.65;;;11.55;;
23517;SDS011;11935;50.878;4.392;2022-12-07T06:43:50;17.63;;;11.45;;
23517;SDS011;11935;50.878;4.392;2022-12-07T06:46:16;18.20;;;11.75;;
23517;SDS011;11935;50.878;4.392;2022-12-07T06:48:42;19.88;;;11.48;;
23517;SDS011;11935;50.878;4.392;2022-12-07T06:51:09;20.08;;;11.95;;
23517;SDS011;11935;50.878;4.392;2022-12-07T06:53:35;17.35;;;11.32;;
23517;SDS011;11935;50.878;4.392;2022-12-07T06:56:01;19.83;;;10.73;;
23517;SDS011;11935;50.878;4.392;2022-12-07T06:58:28;18.38;;;10.38;;
23517;SDS011;11935;50.878;4.392;2022-12-07T07:00:54;16.60;;;11.05;;
23517;SDS011;11935;50.878;4.392;2022-12-07T07:03:20;17.35;;;10.57;;
23517;SDS011;11935;50.878;4.392;2022-12-07T07:05:46;16.35;;;10.40;;
23517;SDS011;11935;50.878;4.392;2022-12-07T07:08:12;20.20;;;10.60;;
23517;SDS011;11935;50.878;4.392;2022-12-07T07:10:39;17.55;;;11.60;;
23517;SDS011;11935;50.878;4.392;2022-12-07T07:13:05;17.05;;;10.77;;
23517;SDS011;11935;50.878;4.392;2022-12-07T07:15:31;16.50;;;10.50;;
23517;SDS011;11935;50.878;4.392;2022-12-07T07:17:57;22.02;;;11.60;;
23517;SDS011;11935;50.878;4.392;2022-12-07T07:20:23;18.30;;;11.63;;
23517;SDS011;11935;50.878;4.392;2022-12-07T07:22:49;17.83;;;11.00;;
23517;SDS011;11935;50.878;4.392;2022-12-07T07:25:15;19.98;;;11.43;;
23517;SDS011;11935;50.878;4.392;2022-12-07T07:27:42;18.08;;;11.73;;
23517;SDS011;11935;50.878;4.392;2022-12-07T07:30:08;25.10;;;11.73;;
23517;SDS011;11935;50.878;4.392;2022-12-07T07:32:34;21.58;;;12.65;;
23517;SDS011;11935;50.878;4.392;2022-12-07T07:35:00;20.02;;;11.27;;
23517;SDS011;11935;50.878;4.392;2022-12-07T07:37:26;17.13;;;11.70;;
23517;SDS011;11935;50.878;4.392;2022-12-07T07:39:52;21.50;;;10.98;;
23517;SDS011;11935;50.878;4.392;2022-12-07T07:42:18;20.50;;;10.82;;
23517;SDS011;11935;50.878;4.392;2022-12-07T07:44:44;18.17;;;10.48;;
23517;SDS011;11935;50.878;4.392;2022-12-07T07:47:10;20.60;;;11.25;;
23517;SDS011;11935;50.878;4.392;2022-12-07T07:49:36;15.98;;;10.77;;
23517;SDS011;11935;50.878;4.392;2022-12-07T07:52:02;23.40;;;11.70;;
23517;SDS011;11935;50.878;4.392;2022-12-07T07:54:29;19.70;;;11.57;;
23517;SDS011;11935;50.878;4.392;2022-12-07T07:56:55;17.70;;;10.95;;
23517;SDS011;11935;50.878;4.392;2022-12-07T07:59:21;22.58;;;11.10;;
23517;SDS011;11935;50.878;4.392;2022-12-07T08:01:47;18.58;;;11.73;;
23517;SDS011;11935;50.878;4.392;2022-12-07T08:04:13;14.65;;;10.38;;
23517;SDS011;11935;50.878;4.392;2022-12-07T08:06:39;18.67;;;11.27;;
23517;SDS011;11935;50.878;4.392;2022-12-07T08:09:07;17.70;;;11.63;;
23517;SDS011;11935;50.878;4.392;2022-12-07T08:11:33;16.30;;;11.38;;
23517;SDS011;11935;50.878;4.392;2022-12-07T08:13:59;18.85;;;11.43;;
23517;SDS011;11935;50.878;4.392;2022-12-07T08:16:25;20.55;;;10.90;;
23517;SDS011;11935;50.878;4.392;2022-12-07T08:18:51;14.90;;;10.77;;
23517;SDS011;11935;50.878;4.392;2022-12-07T08:21:17;17.40;;;11.55;;
23517;SDS011;11935;50.878;4.392;2022-12-07T08:23:43;18.55;;;10.63;;
23517;SDS011;11935;50.878;4.392;2022-12-07T08:26:11;22.77;;;12.32;;
23517;SDS011;11935;50.878;4.392;2022-12-07T08:28:37;24.65;;;11.05;;
23517;SDS011;11935;50.878;4.392;2022-12-07T08:31:04;15.63;;;10.70;;
23517;SDS011;11935;50.878;4.392;2022-12-07T08:33:31;19.73;;;11.63;;
23517;SDS011;11935;50.878;4.392;2022-12-07T08:36:07;15.00;;;10.55;;
23517;SDS011;11935;50.878;4.392;2022-12-07T08:38:34;20.90;;;12.40;;
23517;SDS011;11935;50.878;4.392;2022-12-07T08:41:01;23.30;;;12.23;;
23517;SDS011;11935;50.878;4.392;2022-12-07T08:43:27;26.63;;;11.98;;
23517;SDS011;11935;50.878;4.392;2022-12-07T08:45:56;22.35;;;12.13;;
23517;SDS011;11935;50.878;4.392;2022-12-07T08:48:28;17.88;;;11.55;;
23517;SDS011;11935;50.878;4.392;2022-12-07T08:50:55;21.02;;;11.98;;
23517;SDS011;11935;50.878;4.392;2022-12-07T08:53:21;17.50;;;11.10;;
23517;SDS011;11935;50.878;4.392;2022-12-07T08:55:47;17.95;;;10.55;;
23517;SDS011;11935;50.878;4.392;2022-12-07T08:58:14;17.40;;;9.88;;
23517;SDS011;11935;50.878;4.392;2022-12-07T09:00:40;14.27;;;9.55;;
23517;SDS011;11935;50.878;4.392;2022-12-07T09:03:06;17.27;;;9.88;;
23517;SDS011;11935;50.878;4.392;2022-12-07T09:05:33;17.55;;;8.95;;
23517;SDS011;11935;50.878;4.392;2022-12-07T09:07:59;13.45;;;9.23;;
23517;SDS011;11935;50.878;4.392;2022-12-07T09:10:26;13.80;;;8.30;;
23517;SDS011;11935;50.878;4.392;2022-12-07T09:12:52;15.98;;;10.45;;
23517;SDS011;11935;50.878;4.392;2022-12-07T09:15:18;20.75;;;11.93;;
23517;SDS011;11935;50.878;4.392;2022-12-07T09:17:44;19.42;;;10.10;;
23517;SDS011;11935;50.878;4.392;2022-12-07T09:20:11;20.13;;;10.07;;
23517;SDS011;11935;50.878;4.392;2022-12-07T09:22:37;19.50;;;9.00;;
23517;SDS011;11935;50.878;4.392;2022-12-07T09:25:03;15.18;;;8.48;;
23517;SDS011;11935;50.878;4.392;2022-12-07T09:27:29;12.73;;;8.55;;
23517;SDS011;11935;50.878;4.392;2022-12-07T09:29:56;14.32;;;7.93;;
23517;SDS011;11935;50.878;4.392;2022-12-07T09:32:22;17.38;;;9.43;;
23517;SDS011;11935;50.878;4.392;2022-12-07T09:34:48;16.67;;;7.35;;
23517;SDS011;11935;50.878;4.392;2022-12-07T09:37:14;16.60;;;8.63;;
23517;SDS011;11935;50.878;4.392;2022-12-07T09:39:40;14.57;;;8.23;;
23517;SDS011;11935;50.878;4.392;2022-12-07T09:42:07;11.20;;;8.25;;
23517;SDS011;11935;50.878;4.392;2022-12-07T09:44:33;17.15;;;8.50;;
23517;SDS011;11935;50.878;4.392;2022-12-07T09:47:00;20.13;;;8.15;;
23517;SDS011;11935;50.878;4.392;2022-12-07T09:49:28;19.48;;;8.80;;
23517;SDS011;11935;50.878;4.392;2022-12-07T09:52:02;17.02;;;8.18;;
23517;SDS011;11935;50.878;4.392;2022-12-07T09:54:28;14.10;;;8.32;;
23517;SDS011;11935;50.878;4.392;2022-12-07T09:56:55;10.63;;;7.55;;
23517;SDS011;11935;50.878;4.392;2022-12-07T09:59:21;17.10;;;8.32;;
23517;SDS011;11935;50.878;4.392;2022-12-07T10:01:48;12.98;;;8.18;;
23517;SDS011;11935;50.878;4.392;2022-12-07T10:06:40;16.40;;;8.00;;
23517;SDS011;11935;50.878;4.392;2022-12-07T10:09:13;14.45;;;8.18;;
23517;SDS011;11935;50.878;4.392;2022-12-07T10:11:59;12.60;;;6.82;;
23517;SDS011;11935;50.878;4.392;2022-12-07T10:14:32;14.45;;;7.32;;
23517;SDS011;11935;50.878;4.392;2022-12-07T10:16:58;16.55;;;7.13;;
23517;SDS011;11935;50.878;4.392;2022-12-07T10:19:28;15.40;;;8.25;;
23517;SDS011;11935;50.878;4.392;2022-12-07T10:22:05;17.00;;;8.88;;
23517;SDS011;11935;50.878;4.392;2022-12-07T10:24:34;17.40;;;8.35;;
23517;SDS011;11935;50.878;4.392;2022-12-07T10:27:02;19.67;;;8.52;;
23517;SDS011;11935;50.878;4.392;2022-12-07T10:32:01;16.75;;;8.02;;
23517;SDS011;11935;50.878;4.392;2022-12-07T10:34:29;13.50;;;7.03;;
23517;SDS011;11935;50.878;4.392;2022-12-07T10:39:50;11.48;;;6.43;;
23517;SDS011;11935;50.878;4.392;2022-12-07T10:42:23;11.27;;;6.03;;
23517;SDS011;11935;50.878;4.392;2022-12-07T10:44:50;14.40;;;7.25;;
23517;SDS011;11935;50.878;4.392;2022-12-07T10:47:34;8.85;;;6.60;;
23517;SDS011;11935;50.878;4.392;2022-12-07T10:52:45;16.83;;;6.63;;
23517;SDS011;11935;50.878;4.392;2022-12-07T10:55:19;10.73;;;6.13;;
23517;SDS011;11935;50.878;4.392;2022-12-07T11:11:38;9.85;;;5.75;;
23517;SDS011;11935;50.878;4.392;2022-12-07T11:19:10;10.68;;;6.13;;
23517;SDS011;11935;50.878;4.392;2022-12-07T11:24:13;10.85;;;5.35;;
23517;SDS011;11935;50.878;4.392;2022-12-07T11:32:02;11.88;;;5.10;;
23517;SDS011;11935;50.878;4.392;2022-12-07T11:37:20;12.02;;;5.25;;
23517;SDS011;11935;50.878;4.392;2022-12-07T11:39:49;11.88;;;5.00;;
23517;SDS011;11935;50.878;4.392;2022-12-07T11:42:21;10.63;;;5.72;;
23517;SDS011;11935;50.878;4.392;2022-12-07T11:44:50;8.68;;;4.85;;
23517;SDS011;11935;50.878;4.392;2022-12-07T11:49:51;11.43;;;5.00;;
23517;SDS011;11935;50.878;4.392;2022-12-07T11:52:25;8.02;;;4.18;;
23517;SDS011;11935;50.878;4.392;2022-12-07T11:54:52;10.10;;;4.68;;
23517;SDS011;11935;50.878;4.392;2022-12-07T11:57:35;10.40;;;5.32;;
23517;SDS011;11935;50.878;4.392;2022-12-07T12:00:05;8.30;;;5.00;;
23517;SDS011;11935;50.878;4.392;2022-12-07T12:02:35;12.40;;;5.30;;
23517;SDS011;11935;50.878;4.392;2022-12-07T12:05:13;10.52;;;4.03;;
23517;SDS011;11935;50.878;4.392;2022-12-07T12:07:40;12.05;;;3.92;;
23517;SDS011;11935;50.878;4.392;2022-12-07T12:13:18;9.43;;;4.10;;
23517;SDS011;11935;50.878;4.392;2022-12-07T12:20:48;6.70;;;3.05;;
23517;SDS011;11935;50.878;4.392;2022-12-07T12:23:34;5.22;;;2.60;;
23517;SDS011;11935;50.878;4.392;2022-12-07T12:26:02;8.55;;;3.83;;
23517;SDS011;11935;50.878;4.392;2022-12-07T12:31:09;5.20;;;2.38;;
23517;SDS011;11935;50.878;4.392;2022-12-07T12:33:35;10.05;;;3.17;;
23517;SDS011;11935;50.878;4.392;2022-12-07T12:39:20;7.38;;;2.83;;
23517;SDS011;11935;50.878;4.392;2022-12-07T12:44:03;6.88;;;2.88;;
23517;SDS011;11935;50.878;4.392;2022-12-07T13:02:15;7.90;;;1.90;;
23517;SDS011;11935;50.878;4.392;2022-12-07T13:10:00;6.78;;;1.83;;
23517;SDS011;11935;50.878;4.392;2022-12-07T13:12:27;5.10;;;1.60;;
23517;SDS011;11935;50.878;4.392;2022-12-07T13:14:54;5.00;;;2.53;;
23517;SDS011;11935;50.878;4.392;2022-12-07T13:20:03;7.90;;;1.95;;
23517;SDS011;11935;50.878;4.392;2022-12-07T13:24:56;5.60;;;2.05;;
23517;SDS011;11935;50.878;4.392;2022-12-07T13:27:24;7.95;;;1.63;;
23517;SDS011;11935;50.878;4.392;2022-12-07T13:29:51;3.92;;;1.77;;
23517;SDS011;11935;50.878;4.392;2022-12-07T13:32:24;4.32;;;1.58;;
23517;SDS011;11935;50.878;4.392;2022-12-07T13:34:50;8.00;;;2.08;;
23517;SDS011;11935;50.878;4.392;2022-12-07T13:37:24;4.97;;;2.08;;
23517;SDS011;11935;50.878;4.392;2022-12-07T13:39:56;4.97;;;2.28;;
23517;SDS011;11935;50.878;4.392;2022-12-07T13:44:55;6.78;;;2.10;;
23517;SDS011;11935;50.878;4.392;2022-12-07T13:50:23;9.32;;;1.77;;
23517;SDS011;11935;50.878;4.392;2022-12-07T13:52:49;9.07;;;1.92;;
23517;SDS011;11935;50.878;4.392;2022-12-07T13:55:16;7.38;;;2.17;;
23517;SDS011;11935;50.878;4.392;2022-12-07T13:57:42;6.07;;;1.88;;
23517;SDS011;11935;50.878;4.392;2022-12-07T14:00:15;6.50;;;2.03;;
23517;SDS011;11935;50.878;4.392;2022-12-07T14:05:24;6.22;;;1.70;;
23517;SDS011;11935;50.878;4.392;2022-12-07T14:11:08;8.23;;;2.00;;
23517;SDS011;11935;50.878;4.392;2022-12-07T14:13:31;3.88;;;1.73;;
23517;SDS011;11935;50.878;4.392;2022-12-07T14:16:04;5.20;;;2.17;;
23517;SDS011;11935;50.878;4.392;2022-12-07T14:23:37;5.07;;;2.80;;
23517;SDS011;11935;50.878;4.392;2022-12-07T14:26:13;5.03;;;2.60;;
23517;SDS011;11935;50.878;4.392;2022-12-07T14:28:41;5.10;;;3.33;;
23517;SDS011;11935;50.878;4.392;2022-12-07T14:31:10;8.05;;;3.38;;
23517;SDS011;11935;50.878;4.392;2022-12-07T14:33:36;3.63;;;3.33;;
23517;SDS011;11935;50.878;4.392;2022-12-07T14:36:02;6.00;;;4.28;;
23517;SDS011;11935;50.878;4.392;2022-12-07T14:38:29;7.43;;;4.43;;
23517;SDS011;11935;50.878;4.392;2022-12-07T14:40:55;6.13;;;4.30;;
23517;SDS011;11935;50.878;4.392;2022-12-07T14:43:41;5.93;;;4.25;;
23517;SDS011;11935;50.878;4.392;2022-12-07T14:46:08;8.60;;;5.53;;
23517;SDS011;11935;50.878;4.392;2022-12-07T14:48:34;8.90;;;5.07;;
23517;SDS011;11935;50.878;4.392;2022-12-07T14:51:00;5.63;;;4.68;;
23517;SDS011;11935;50.878;4.392;2022-12-07T14:53:28;10.90;;;3.92;;
23517;SDS011;11935;50.878;4.392;2022-12-07T14:55:55;5.43;;;3.50;;
23517;SDS011;11935;50.878;4.392;2022-12-07T14:58:21;8.30;;;3.72;;
23517;SDS011;11935;50.878;4.392;2022-12-07T15:00:47;5.60;;;2.92;;
23517;SDS011;11935;50.878;4.392;2022-12-07T15:03:13;5.80;;;3.03;;
23517;SDS011;11935;50.878;4.392;2022-12-07T15:05:39;2.67;;;2.35;;
23517;SDS011;11935;50.878;4.392;2022-12-07T15:08:07;6.78;;;3.00;;
23517;SDS011;11935;50.878;4.392;2022-12-07T15:10:34;4.80;;;2.42;;
23517;SDS011;11935;50.878;4.392;2022-12-07T15:13:03;3.92;;;2.15;;
23517;SDS011;11935;50.878;4.392;2022-12-07T15:15:49;4.90;;;2.72;;
23517;SDS011;11935;50.878;4.392;2022-12-07T15:18:16;4.55;;;2.58;;
23517;SDS011;11935;50.878;4.392;2022-12-07T15:20:42;6.70;;;2.80;;
23517;SDS011;11935;50.878;4.392;2022-12-07T15:23:08;3.42;;;2.40;;
23517;SDS011;11935;50.878;4.392;2022-12-07T15:25:34;3.83;;;2.10;;
23517;SDS011;11935;50.878;4.392;2022-12-07T15:28:00;7.18;;;2.25;;
23517;SDS011;11935;50.878;4.392;2022-12-07T15:30:26;3.75;;;2.08;;
23517;SDS011;11935;50.878;4.392;2022-12-07T15:32:52;4.25;;;2.25;;
23517;SDS011;11935;50.878;4.392;2022-12-07T15:35:19;4.05;;;2.40;;
23517;SDS011;11935;50.878;4.392;2022-12-07T15:37:45;5.25;;;2.72;;
23517;SDS011;11935;50.878;4.392;2022-12-07T15:40:11;6.07;;;2.30;;
23517;SDS011;11935;50.878;4.392;2022-12-07T15:42:38;7.07;;;2.40;;
23517;SDS011;11935;50.878;4.392;2022-12-07T15:45:04;5.47;;;2.20;;
23517;SDS011;11935;50.878;4.392;2022-12-07T15:47:35;5.25;;;2.40;;
23517;SDS011;11935;50.878;4.392;2022-12-07T15:50:05;5.53;;;2.67;;
23517;SDS011;11935;50.878;4.392;2022-12-07T15:52:32;6.63;;;2.90;;
23517;SDS011;11935;50.878;4.392;2022-12-07T15:54:59;8.00;;;3.40;;
23517;SDS011;11935;50.878;4.392;2022-12-07T15:57:25;7.85;;;3.63;;
23517;SDS011;11935;50.878;4.392;2022-12-07T15:59:51;8.18;;;3.15;;
23517;SDS011;11935;50.878;4.392;2022-12-07T16:02:18;6.20;;;2.50;;
23517;SDS011;11935;50.878;4.392;2022-12-07T16:04:44;8.75;;;2.97;;
23517;SDS011;11935;50.878;4.392;2022-12-07T16:07:11;6.05;;;3.53;;
23517;SDS011;11935;50.878;4.392;2022-12-07T16:09:39;76.93;;;41.78;;
23517;SDS011;11935;50.878;4.392;2022-12-07T16:12:05;10.52;;;5.03;;
23517;SDS011;11935;50.878;4.392;2022-12-07T16:14:31;12.32;;;6.30;;
23517;SDS011;11935;50.878;4.392;2022-12-07T16:16:58;11.98;;;5.32;;
23517;SDS011;11935;50.878;4.392;2022-12-07T16:19:24;6.53;;;3.78;;
23517;SDS011;11935;50.878;4.392;2022-12-07T16:21:50;7.10;;;3.53;;
23517;SDS011;11935;50.878;4.392;2022-12-07T16:24:16;8.20;;;4.43;;
23517;SDS011;11935;50.878;4.392;2022-12-07T16:26:43;10.23;;;4.10;;
23517;SDS011;11935;50.878;4.392;2022-12-07T16:29:11;7.70;;;4.82;;
23517;SDS011;11935;50.878;4.392;2022-12-07T16:31:37;6.47;;;3.75;;
23517;SDS011;11935;50.878;4.392;2022-12-07T16:34:03;8.15;;;3.80;;
23517;SDS011;11935;50.878;4.392;2022-12-07T16:36:29;8.80;;;4.00;;
23517;SDS011;11935;50.878;4.392;2022-12-07T16:38:57;6.20;;;4.28;;
23517;SDS011;11935;50.878;4.392;2022-12-07T16:41:23;11.53;;;5.60;;
23517;SDS011;11935;50.878;4.392;2022-12-07T16:43:49;10.35;;;5.32;;
23517;SDS011;11935;50.878;4.392;2022-12-07T16:46:15;9.73;;;5.75;;
23517;SDS011;11935;50.878;4.392;2022-12-07T16:48:42;10.63;;;5.25;;
23517;SDS011;11935;50.878;4.392;2022-12-07T16:51:09;9.07;;;4.45;;
23517;SDS011;11935;50.878;4.392;2022-12-07T16:53:35;8.77;;;4.53;;
23517;SDS011;11935;50.878;4.392;2022-12-07T16:56:02;8.50;;;4.70;;